Lost Nation, IA (52254)

5:24 PM CST on February 10, 2016 (GMT -0600)
Maquoketa Weather 1 ( Middle School | | Change Station
CLOSE
Current Station
Personal Weather Station
Location: Maquoketa, IA
Elevation: 755 ft
Nearby Weather Stations

Elev 755 ft 42.06 °N, 90.67 °W | Updated 10 minutes ago

Mostly Cloudy
Mostly Cloudy
16.9 °F
Feels Like 17 °F
N
0.0
Wind Variable Wind from West

Today
High -- | Low -- °F
--% Chance of Precip.
Yesterday
High -- | Low -- °F
Precip. -- in
Pressure 30.10 in
Visibility 10.0 miles
Clouds Overcast 12000 ft
Windchill 17 °F
Dew Point 4 °F
Humidity 55%
Rainfall 0.00 in
Snow Depth Not available.
7:06 AM 5:29 PM
Waxing Crescent, 8% visible
METAR KMXO 102315Z AUTO 30007KT 10SM OVC120 M10/M16 A3010 RMK AO2
Pressure 30.10 in
Visibility 10.0 miles
Clouds Overcast 12000 ft
Windchill 17 °F
Dew Point 4 °F
Humidity 55%
Rainfall 0.00 in
Snow Depth Not available.
7:06 AM 5:29 PM
Waxing Crescent, 8% visible
METAR KMXO 102315Z AUTO 30007KT 10SM OVC120 M10/M16 A3010 RMK AO2

10-Day Weather Forecast

Almanac

Astronomy

Feb. 10, 2016 Rise Set
Actual Time
Civil Twilight
Nautical Twilight
Astronomical Twilight
Moon
Length of Visible Light
Length of Day
Tomorrow will be .
, % of the Moon is Illuminated

Today's Extremes

State Highs State Lows

Community

WunderPhotos

Upload Photos

1,891,935 photos uploaded!

WunderBlog® & News

Nearby

Air Quality

  Air Quality AQ Index Pollutant
Not available.

Snow Depth

Station Depth Elevation

Earthquake Activity

City Distance Mag. Time & Date
Minimum magnitude displayed is 2.5.

Coastal Water Temperatures

Place Temperature

Stations

Nearby Weather Stations

Station Location Temp. Windchill Dew Point Humidity Wind Precip. Elev Updated Type
                   

Watches & Warnings

There are currently no watches in effect.